sensor_id;sensor_type;location;lat;lon;timestamp;P1;durP1;ratioP1;P2;durP2;ratioP2
1404;SDS011;697;51.114;6.542;2023-05-16T00:01:51;3.53;;;2.30;;
1404;SDS011;697;51.114;6.542;2023-05-16T00:04:18;3.63;;;2.20;;
1404;SDS011;697;51.114;6.542;2023-05-16T00:06:45;2.23;;;1.70;;
1404;SDS011;697;51.114;6.542;2023-05-16T00:09:12;2.40;;;1.93;;
1404;SDS011;697;51.114;6.542;2023-05-16T00:11:38;2.30;;;1.83;;
1404;SDS011;697;51.114;6.542;2023-05-16T00:14:05;2.47;;;2.10;;
1404;SDS011;697;51.114;6.542;2023-05-16T00:16:33;3.00;;;1.90;;
1404;SDS011;697;51.114;6.542;2023-05-16T00:19:01;2.13;;;1.97;;
1404;SDS011;697;51.114;6.542;2023-05-16T00:21:28;2.87;;;1.80;;
1404;SDS011;697;51.114;6.542;2023-05-16T00:23:55;2.00;;;1.43;;
1404;SDS011;697;51.114;6.542;2023-05-16T00:26:22;1.70;;;1.60;;
1404;SDS011;697;51.114;6.542;2023-05-16T00:28:48;4.27;;;2.40;;
1404;SDS011;697;51.114;6.542;2023-05-16T00:31:15;4.87;;;2.13;;
1404;SDS011;697;51.114;6.542;2023-05-16T00:33:43;2.60;;;1.40;;
1404;SDS011;697;51.114;6.542;2023-05-16T00:36:10;2.60;;;1.60;;
1404;SDS011;697;51.114;6.542;2023-05-16T00:38:37;2.20;;;1.43;;
1404;SDS011;697;51.114;6.542;2023-05-16T00:41:03;1.70;;;1.30;;
1404;SDS011;697;51.114;6.542;2023-05-16T00:43:30;2.60;;;1.70;;
1404;SDS011;697;51.114;6.542;2023-05-16T00:45:57;3.73;;;2.23;;
1404;SDS011;697;51.114;6.542;2023-05-16T00:48:24;3.10;;;1.83;;
1404;SDS011;697;51.114;6.542;2023-05-16T00:50:52;3.97;;;2.10;;
1404;SDS011;697;51.114;6.542;2023-05-16T00:53:20;4.00;;;1.77;;
1404;SDS011;697;51.114;6.542;2023-05-16T00:55:46;4.43;;;2.57;;
1404;SDS011;697;51.114;6.542;2023-05-16T00:58:13;3.77;;;1.77;;
1404;SDS011;697;51.114;6.542;2023-05-16T01:00:41;3.17;;;1.60;;
1404;SDS011;697;51.114;6.542;2023-05-16T01:03:07;2.50;;;1.87;;
1404;SDS011;697;51.114;6.542;2023-05-16T01:05:34;3.10;;;2.10;;
1404;SDS011;697;51.114;6.542;2023-05-16T01:08:02;4.50;;;3.10;;
1404;SDS011;697;51.114;6.542;2023-05-16T01:10:31;6.13;;;2.77;;
1404;SDS011;697;51.114;6.542;2023-05-16T01:13:06;5.93;;;2.50;;
1404;SDS011;697;51.114;6.542;2023-05-16T01:15:38;4.13;;;2.10;;
1404;SDS011;697;51.114;6.542;2023-05-16T01:18:11;8.33;;;2.40;;
1404;SDS011;697;51.114;6.542;2023-05-16T01:20:46;8.13;;;2.43;;
1404;SDS011;697;51.114;6.542;2023-05-16T01:23:28;6.50;;;2.83;;
1404;SDS011;697;51.114;6.542;2023-05-16T01:26:12;5.67;;;2.60;;
1404;SDS011;697;51.114;6.542;2023-05-16T01:28:41;8.00;;;2.73;;
1404;SDS011;697;51.114;6.542;2023-05-16T01:31:10;8.60;;;3.50;;
1404;SDS011;697;51.114;6.542;2023-05-16T01:33:37;5.33;;;2.93;;
1404;SDS011;697;51.114;6.542;2023-05-16T01:36:05;7.23;;;2.37;;
1404;SDS011;697;51.114;6.542;2023-05-16T01:38:38;12.57;;;2.70;;
1404;SDS011;697;51.114;6.542;2023-05-16T01:41:11;6.53;;;3.00;;
1404;SDS011;697;51.114;6.542;2023-05-16T01:43:46;7.93;;;2.67;;
1404;SDS011;697;51.114;6.542;2023-05-16T01:46:18;11.23;;;3.67;;
1404;SDS011;697;51.114;6.542;2023-05-16T01:48:50;6.67;;;2.37;;
1404;SDS011;697;51.114;6.542;2023-05-16T01:51:20;8.00;;;2.47;;
1404;SDS011;697;51.114;6.542;2023-05-16T01:53:49;9.90;;;3.10;;
1404;SDS011;697;51.114;6.542;2023-05-16T01:56:19;8.63;;;2.63;;
1404;SDS011;697;51.114;6.542;2023-05-16T01:58:46;12.10;;;3.90;;
1404;SDS011;697;51.114;6.542;2023-05-16T02:01:16;12.13;;;2.87;;
1404;SDS011;697;51.114;6.542;2023-05-16T02:03:43;8.63;;;2.90;;
1404;SDS011;697;51.114;6.542;2023-05-16T02:06:09;10.90;;;3.10;;
1404;SDS011;697;51.114;6.542;2023-05-16T02:08:36;8.47;;;3.30;;
1404;SDS011;697;51.114;6.542;2023-05-16T02:11:03;6.80;;;2.60;;
1404;SDS011;697;51.114;6.542;2023-05-16T02:13:31;11.20;;;3.30;;
1404;SDS011;697;51.114;6.542;2023-05-16T02:15:58;11.47;;;3.63;;
1404;SDS011;697;51.114;6.542;2023-05-16T02:18:24;9.87;;;2.60;;
1404;SDS011;697;51.114;6.542;2023-05-16T02:20:52;8.07;;;3.30;;
1404;SDS011;697;51.114;6.542;2023-05-16T02:23:19;12.07;;;4.40;;
1404;SDS011;697;51.114;6.542;2023-05-16T02:25:45;8.37;;;3.13;;
1404;SDS011;697;51.114;6.542;2023-05-16T02:28:12;13.03;;;3.40;;
1404;SDS011;697;51.114;6.542;2023-05-16T02:30:40;6.23;;;2.80;;
1404;SDS011;697;51.114;6.542;2023-05-16T02:33:06;7.27;;;2.70;;
1404;SDS011;697;51.114;6.542;2023-05-16T02:35:33;8.43;;;2.70;;
1404;SDS011;697;51.114;6.542;2023-05-16T02:38:00;7.77;;;3.00;;
1404;SDS011;697;51.114;6.542;2023-05-16T02:40:27;8.47;;;3.90;;
1404;SDS011;697;51.114;6.542;2023-05-16T02:42:54;12.80;;;4.23;;
1404;SDS011;697;51.114;6.542;2023-05-16T02:45:20;7.83;;;3.03;;
1404;SDS011;697;51.114;6.542;2023-05-16T02:47:48;17.27;;;3.60;;
1404;SDS011;697;51.114;6.542;2023-05-16T02:50:15;13.97;;;3.33;;
1404;SDS011;697;51.114;6.542;2023-05-16T02:52:42;9.60;;;3.23;;
1404;SDS011;697;51.114;6.542;2023-05-16T02:55:08;7.43;;;3.50;;
1404;SDS011;697;51.114;6.542;2023-05-16T02:57:35;12.77;;;3.70;;
1404;SDS011;697;51.114;6.542;2023-05-16T03:00:02;12.83;;;3.30;;
1404;SDS011;697;51.114;6.542;2023-05-16T03:02:30;8.90;;;3.30;;
1404;SDS011;697;51.114;6.542;2023-05-16T03:04:58;10.53;;;2.70;;
1404;SDS011;697;51.114;6.542;2023-05-16T03:07:25;12.63;;;4.70;;
1404;SDS011;697;51.114;6.542;2023-05-16T03:09:51;17.47;;;3.53;;
1404;SDS011;697;51.114;6.542;2023-05-16T03:12:18;11.00;;;2.70;;
1404;SDS011;697;51.114;6.542;2023-05-16T03:14:45;13.37;;;3.47;;
1404;SDS011;697;51.114;6.542;2023-05-16T03:17:11;16.70;;;3.97;;
1404;SDS011;697;51.114;6.542;2023-05-16T03:19:38;12.47;;;3.50;;
1404;SDS011;697;51.114;6.542;2023-05-16T03:22:06;10.10;;;2.63;;
1404;SDS011;697;51.114;6.542;2023-05-16T03:24:33;11.70;;;3.10;;
1404;SDS011;697;51.114;6.542;2023-05-16T03:26:59;12.40;;;3.23;;
1404;SDS011;697;51.114;6.542;2023-05-16T03:29:27;8.67;;;3.30;;
1404;SDS011;697;51.114;6.542;2023-05-16T03:31:54;6.63;;;2.63;;
1404;SDS011;697;51.114;6.542;2023-05-16T03:34:21;12.93;;;3.17;;
1404;SDS011;697;51.114;6.542;2023-05-16T03:36:48;12.83;;;3.20;;
1404;SDS011;697;51.114;6.542;2023-05-16T03:39:17;15.40;;;2.77;;
1404;SDS011;697;51.114;6.542;2023-05-16T03:41:43;12.63;;;2.90;;
1404;SDS011;697;51.114;6.542;2023-05-16T03:44:10;7.87;;;2.47;;
1404;SDS011;697;51.114;6.542;2023-05-16T03:46:37;13.87;;;2.80;;
1404;SDS011;697;51.114;6.542;2023-05-16T03:49:04;7.40;;;2.53;;
1404;SDS011;697;51.114;6.542;2023-05-16T03:51:30;13.80;;;2.80;;
1404;SDS011;697;51.114;6.542;2023-05-16T03:53:58;12.30;;;2.60;;
1404;SDS011;697;51.114;6.542;2023-05-16T03:56:26;9.47;;;3.30;;
1404;SDS011;697;51.114;6.542;2023-05-16T03:58:53;10.13;;;2.60;;
1404;SDS011;697;51.114;6.542;2023-05-16T04:01:19;8.80;;;2.20;;
1404;SDS011;697;51.114;6.542;2023-05-16T04:03:46;10.33;;;2.63;;
1404;SDS011;697;51.114;6.542;2023-05-16T04:06:14;17.53;;;3.00;;
1404;SDS011;697;51.114;6.542;2023-05-16T04:08:41;15.47;;;2.73;;
1404;SDS011;697;51.114;6.542;2023-05-16T04:11:09;8.90;;;2.63;;
1404;SDS011;697;51.114;6.542;2023-05-16T04:13:37;14.00;;;2.80;;
1404;SDS011;697;51.114;6.542;2023-05-16T04:16:04;14.97;;;3.03;;
1404;SDS011;697;51.114;6.542;2023-05-16T04:18:31;12.20;;;2.40;;
1404;SDS011;697;51.114;6.542;2023-05-16T04:20:57;8.93;;;2.30;;
1404;SDS011;697;51.114;6.542;2023-05-16T04:23:24;13.23;;;2.80;;
1404;SDS011;697;51.114;6.542;2023-05-16T04:25:51;8.43;;;2.50;;
1404;SDS011;697;51.114;6.542;2023-05-16T04:28:18;8.43;;;2.40;;
1404;SDS011;697;51.114;6.542;2023-05-16T04:30:46;12.10;;;3.23;;
1404;SDS011;697;51.114;6.542;2023-05-16T04:33:13;13.30;;;3.43;;
1404;SDS011;697;51.114;6.542;2023-05-16T04:35:40;9.37;;;2.13;;
1404;SDS011;697;51.114;6.542;2023-05-16T04:38:07;8.10;;;2.10;;
1404;SDS011;697;51.114;6.542;2023-05-16T04:40:34;9.97;;;2.73;;
1404;SDS011;697;51.114;6.542;2023-05-16T04:43:00;11.53;;;2.50;;
1404;SDS011;697;51.114;6.542;2023-05-16T04:45:27;11.13;;;2.63;;
1404;SDS011;697;51.114;6.542;2023-05-16T04:47:55;7.07;;;2.50;;
1404;SDS011;697;51.114;6.542;2023-05-16T04:50:21;7.67;;;2.40;;
1404;SDS011;697;51.114;6.542;2023-05-16T04:52:48;16.73;;;2.40;;
1404;SDS011;697;51.114;6.542;2023-05-16T04:55:15;6.40;;;1.67;;
1404;SDS011;697;51.114;6.542;2023-05-16T04:57:41;13.17;;;2.70;;
1404;SDS011;697;51.114;6.542;2023-05-16T05:00:09;10.50;;;2.73;;
1404;SDS011;697;51.114;6.542;2023-05-16T05:02:37;6.57;;;2.57;;
1404;SDS011;697;51.114;6.542;2023-05-16T05:05:06;11.50;;;2.60;;
1404;SDS011;697;51.114;6.542;2023-05-16T05:07:34;14.00;;;2.63;;
1404;SDS011;697;51.114;6.542;2023-05-16T05:10:00;5.47;;;2.50;;
1404;SDS011;697;51.114;6.542;2023-05-16T05:12:27;8.67;;;2.80;;
1404;SDS011;697;51.114;6.542;2023-05-16T05:14:54;9.60;;;2.00;;
1404;SDS011;697;51.114;6.542;2023-05-16T05:17:21;10.17;;;2.73;;
1404;SDS011;697;51.114;6.542;2023-05-16T05:19:47;9.13;;;2.80;;
1404;SDS011;697;51.114;6.542;2023-05-16T05:22:15;16.50;;;2.73;;
1404;SDS011;697;51.114;6.542;2023-05-16T05:24:42;12.87;;;2.60;;
1404;SDS011;697;51.114;6.542;2023-05-16T05:27:09;14.70;;;3.07;;
1404;SDS011;697;51.114;6.542;2023-05-16T05:29:35;12.80;;;2.67;;
1404;SDS011;697;51.114;6.542;2023-05-16T05:32:02;14.47;;;3.40;;
1404;SDS011;697;51.114;6.542;2023-05-16T05:34:29;15.20;;;3.83;;
1404;SDS011;697;51.114;6.542;2023-05-16T05:36:57;10.67;;;2.43;;
1404;SDS011;697;51.114;6.542;2023-05-16T05:39:25;13.90;;;2.97;;
1404;SDS011;697;51.114;6.542;2023-05-16T05:41:52;8.30;;;2.73;;
1404;SDS011;697;51.114;6.542;2023-05-16T05:44:18;5.77;;;2.53;;
1404;SDS011;697;51.114;6.542;2023-05-16T05:46:45;15.40;;;3.20;;
1404;SDS011;697;51.114;6.542;2023-05-16T05:49:12;9.83;;;3.63;;
1404;SDS011;697;51.114;6.542;2023-05-16T05:51:39;13.10;;;3.13;;
1404;SDS011;697;51.114;6.542;2023-05-16T05:54:05;12.57;;;2.90;;
1404;SDS011;697;51.114;6.542;2023-05-16T05:56:34;9.60;;;2.43;;
1404;SDS011;697;51.114;6.542;2023-05-16T05:59:00;5.40;;;2.13;;
1404;SDS011;697;51.114;6.542;2023-05-16T06:01:27;10.57;;;2.90;;
1404;SDS011;697;51.114;6.542;2023-05-16T06:03:53;13.03;;;2.53;;
1404;SDS011;697;51.114;6.542;2023-05-16T06:06:21;14.43;;;3.30;;
1404;SDS011;697;51.114;6.542;2023-05-16T06:08:48;12.20;;;2.23;;
1404;SDS011;697;51.114;6.542;2023-05-16T06:11:15;7.87;;;2.07;;
1404;SDS011;697;51.114;6.542;2023-05-16T06:13:43;11.63;;;2.40;;
1404;SDS011;697;51.114;6.542;2023-05-16T06:16:09;12.33;;;2.50;;
1404;SDS011;697;51.114;6.542;2023-05-16T06:18:36;7.50;;;2.10;;
1404;SDS011;697;51.114;6.542;2023-05-16T06:21:03;9.13;;;2.23;;
1404;SDS011;697;51.114;6.542;2023-05-16T06:23:30;9.30;;;2.27;;
1404;SDS011;697;51.114;6.542;2023-05-16T06:25:57;9.73;;;2.80;;
1404;SDS011;697;51.114;6.542;2023-05-16T06:28:23;12.03;;;2.23;;
1404;SDS011;697;51.114;6.542;2023-05-16T06:30:51;6.70;;;2.60;;
1404;SDS011;697;51.114;6.542;2023-05-16T06:33:18;12.20;;;2.90;;
1404;SDS011;697;51.114;6.542;2023-05-16T06:35:45;11.83;;;2.63;;
1404;SDS011;697;51.114;6.542;2023-05-16T06:38:12;17.20;;;3.30;;
1404;SDS011;697;51.114;6.542;2023-05-16T06:40:38;10.80;;;2.37;;
1404;SDS011;697;51.114;6.542;2023-05-16T06:43:05;8.40;;;2.40;;
1404;SDS011;697;51.114;6.542;2023-05-16T06:45:32;10.10;;;3.30;;
1404;SDS011;697;51.114;6.542;2023-05-16T06:48:00;11.57;;;2.30;;
1404;SDS011;697;51.114;6.542;2023-05-16T06:50:27;5.83;;;1.90;;
1404;SDS011;697;51.114;6.542;2023-05-16T06:52:53;9.07;;;2.60;;
1404;SDS011;697;51.114;6.542;2023-05-16T06:55:20;10.60;;;2.40;;
1404;SDS011;697;51.114;6.542;2023-05-16T06:57:47;10.63;;;2.23;;
1404;SDS011;697;51.114;6.542;2023-05-16T07:00:14;14.60;;;4.13;;
1404;SDS011;697;51.114;6.542;2023-05-16T07:02:41;7.77;;;3.00;;
1404;SDS011;697;51.114;6.542;2023-05-16T07:05:09;10.17;;;1.97;;
1404;SDS011;697;51.114;6.542;2023-05-16T07:07:36;14.47;;;2.77;;
1404;SDS011;697;51.114;6.542;2023-05-16T07:10:03;10.97;;;2.60;;
1404;SDS011;697;51.114;6.542;2023-05-16T07:12:30;8.73;;;2.23;;
1404;SDS011;697;51.114;6.542;2023-05-16T07:14:56;10.90;;;3.20;;
1404;SDS011;697;51.114;6.542;2023-05-16T07:17:23;7.20;;;2.00;;
1404;SDS011;697;51.114;6.542;2023-05-16T07:19:50;10.80;;;2.00;;
1404;SDS011;697;51.114;6.542;2023-05-16T07:22:18;7.67;;;3.00;;
1404;SDS011;697;51.114;6.542;2023-05-16T07:24:45;9.93;;;2.20;;
1404;SDS011;697;51.114;6.542;2023-05-16T07:27:11;7.97;;;3.10;;
1404;SDS011;697;51.114;6.542;2023-05-16T07:29:38;11.60;;;3.40;;
1404;SDS011;697;51.114;6.542;2023-05-16T07:32:05;7.53;;;2.60;;
1404;SDS011;697;51.114;6.542;2023-05-16T07:34:32;10.80;;;2.43;;
1404;SDS011;697;51.114;6.542;2023-05-16T07:36:59;6.13;;;1.90;;
1404;SDS011;697;51.114;6.542;2023-05-16T07:39:27;11.37;;;1.63;;
1404;SDS011;697;51.114;6.542;2023-05-16T07:41:53;5.80;;;1.30;;
1404;SDS011;697;51.114;6.542;2023-05-16T07:44:20;6.07;;;2.00;;
1404;SDS011;697;51.114;6.542;2023-05-16T07:46:47;6.03;;;1.80;;
1404;SDS011;697;51.114;6.542;2023-05-16T07:49:14;7.53;;;2.03;;
1404;SDS011;697;51.114;6.542;2023-05-16T07:51:41;5.50;;;1.70;;
1404;SDS011;697;51.114;6.542;2023-05-16T07:54:08;3.27;;;1.10;;
1404;SDS011;697;51.114;6.542;2023-05-16T07:56:36;4.57;;;1.17;;
1404;SDS011;697;51.114;6.542;2023-05-16T07:59:02;6.33;;;1.47;;
1404;SDS011;697;51.114;6.542;2023-05-16T08:01:29;7.80;;;1.50;;
1404;SDS011;697;51.114;6.542;2023-05-16T08:03:56;7.83;;;1.60;;
1404;SDS011;697;51.114;6.542;2023-05-16T08:06:23;4.93;;;1.73;;
1404;SDS011;697;51.114;6.542;2023-05-16T08:08:50;5.20;;;1.60;;
1404;SDS011;697;51.114;6.542;2023-05-16T08:11:17;7.80;;;1.70;;
1404;SDS011;697;51.114;6.542;2023-05-16T08:13:47;5.87;;;2.13;;
1404;SDS011;697;51.114;6.542;2023-05-16T08:16:14;6.37;;;1.70;;
1404;SDS011;697;51.114;6.542;2023-05-16T08:18:41;8.13;;;2.13;;
1404;SDS011;697;51.114;6.542;2023-05-16T08:21:07;6.03;;;1.83;;
1404;SDS011;697;51.114;6.542;2023-05-16T08:23:34;7.97;;;1.80;;
1404;SDS011;697;51.114;6.542;2023-05-16T08:26:01;5.90;;;1.20;;
1404;SDS011;697;51.114;6.542;2023-05-16T08:28:28;8.23;;;1.90;;
1404;SDS011;697;51.114;6.542;2023-05-16T08:30:56;5.47;;;1.63;;
1404;SDS011;697;51.114;6.542;2023-05-16T08:33:22;9.73;;;1.93;;
1404;SDS011;697;51.114;6.542;2023-05-16T08:35:50;4.97;;;1.60;;
1404;SDS011;697;51.114;6.542;2023-05-16T08:38:17;6.67;;;1.80;;
1404;SDS011;697;51.114;6.542;2023-05-16T08:40:44;7.50;;;1.80;;
1404;SDS011;697;51.114;6.542;2023-05-16T08:43:11;5.10;;;1.30;;
1404;SDS011;697;51.114;6.542;2023-05-16T08:45:39;11.50;;;1.67;;
1404;SDS011;697;51.114;6.542;2023-05-16T08:48:07;8.27;;;2.00;;
1404;SDS011;697;51.114;6.542;2023-05-16T08:50:35;4.10;;;1.53;;
1404;SDS011;697;51.114;6.542;2023-05-16T08:53:03;7.40;;;1.53;;
1404;SDS011;697;51.114;6.542;2023-05-16T08:55:32;6.63;;;2.00;;
1404;SDS011;697;51.114;6.542;2023-05-16T08:57:59;4.83;;;1.70;;
1404;SDS011;697;51.114;6.542;2023-05-16T09:00:26;5.80;;;1.50;;
1404;SDS011;697;51.114;6.542;2023-05-16T09:02:53;4.00;;;1.43;;
1404;SDS011;697;51.114;6.542;2023-05-16T09:05:21;7.90;;;1.83;;
1404;SDS011;697;51.114;6.542;2023-05-16T09:07:48;5.70;;;1.73;;
1404;SDS011;697;51.114;6.542;2023-05-16T09:10:15;4.17;;;1.40;;
1404;SDS011;697;51.114;6.542;2023-05-16T09:12:42;5.90;;;1.50;;
1404;SDS011;697;51.114;6.542;2023-05-16T09:15:09;7.47;;;1.80;;
1404;SDS011;697;51.114;6.542;2023-05-16T09:17:36;6.23;;;1.50;;
1404;SDS011;697;51.114;6.542;2023-05-16T09:20:07;5.83;;;1.70;;
1404;SDS011;697;51.114;6.542;2023-05-16T09:22:36;10.83;;;1.70;;
1404;SDS011;697;51.114;6.542;2023-05-16T09:25:03;5.63;;;1.60;;
1404;SDS011;697;51.114;6.542;2023-05-16T09:27:30;5.00;;;1.50;;
1404;SDS011;697;51.114;6.542;2023-05-16T09:29:58;7.10;;;1.40;;
1404;SDS011;697;51.114;6.542;2023-05-16T09:32:25;4.77;;;2.10;;
1404;SDS011;697;51.114;6.542;2023-05-16T09:34:51;4.90;;;1.30;;
1404;SDS011;697;51.114;6.542;2023-05-16T09:37:21;5.17;;;1.53;;
1404;SDS011;697;51.114;6.542;2023-05-16T09:39:50;7.93;;;1.53;;
1404;SDS011;697;51.114;6.542;2023-05-16T09:42:19;3.37;;;1.43;;
1404;SDS011;697;51.114;6.542;2023-05-16T09:44:47;4.13;;;1.30;;
1404;SDS011;697;51.114;6.542;2023-05-16T09:47:15;7.70;;;1.57;;
1404;SDS011;697;51.114;6.542;2023-05-16T09:49:42;2.93;;;2.00;;
1404;SDS011;697;51.114;6.542;2023-05-16T09:52:10;7.50;;;1.70;;
1404;SDS011;697;51.114;6.542;2023-05-16T09:54:37;4.87;;;1.40;;
1404;SDS011;697;51.114;6.542;2023-05-16T09:57:06;5.67;;;1.53;;
1404;SDS011;697;51.114;6.542;2023-05-16T09:59:34;6.27;;;1.80;;
1404;SDS011;697;51.114;6.542;2023-05-16T10:02:01;6.20;;;1.50;;
1404;SDS011;697;51.114;6.542;2023-05-16T10:04:30;5.47;;;1.57;;
1404;SDS011;697;51.114;6.542;2023-05-16T10:06:56;4.57;;;1.30;;
1404;SDS011;697;51.114;6.542;2023-05-16T10:09:28;3.93;;;1.30;;
1404;SDS011;697;51.114;6.542;2023-05-16T10:11:57;3.07;;;1.50;;
1404;SDS011;697;51.114;6.542;2023-05-16T10:14:28;3.00;;;1.43;;
1404;SDS011;697;51.114;6.542;2023-05-16T10:16:58;4.23;;;1.47;;
1404;SDS011;697;51.114;6.542;2023-05-16T10:19:26;4.53;;;1.30;;
1404;SDS011;697;51.114;6.542;2023-05-16T10:21:55;4.23;;;1.40;;
1404;SDS011;697;51.114;6.542;2023-05-16T10:24:28;5.00;;;1.10;;
1404;SDS011;697;51.114;6.542;2023-05-16T10:26:59;4.60;;;1.50;;
1404;SDS011;697;51.114;6.542;2023-05-16T10:29:28;7.57;;;1.30;;
1404;SDS011;697;51.114;6.542;2023-05-16T10:31:56;3.67;;;1.23;;
1404;SDS011;697;51.114;6.542;2023-05-16T10:34:24;3.80;;;1.33;;
1404;SDS011;697;51.114;6.542;2023-05-16T10:36:51;3.27;;;1.40;;
1404;SDS011;697;51.114;6.542;2023-05-16T10:39:19;3.80;;;1.23;;
1404;SDS011;697;51.114;6.542;2023-05-16T10:41:46;3.83;;;1.50;;
1404;SDS011;697;51.114;6.542;2023-05-16T10:44:13;6.73;;;1.37;;
1404;SDS011;697;51.114;6.542;2023-05-16T10:46:42;4.93;;;1.20;;
1404;SDS011;697;51.114;6.542;2023-05-16T10:49:18;2.10;;;1.23;;
1404;SDS011;697;51.114;6.542;2023-05-16T10:51:46;7.17;;;1.50;;
1404;SDS011;697;51.114;6.542;2023-05-16T10:54:32;3.30;;;1.17;;
1404;SDS011;697;51.114;6.542;2023-05-16T10:57:03;3.50;;;1.20;;
1404;SDS011;697;51.114;6.542;2023-05-16T10:59:39;6.17;;;1.50;;
1404;SDS011;697;51.114;6.542;2023-05-16T11:02:21;3.40;;;1.20;;
1404;SDS011;697;51.114;6.542;2023-05-16T11:04:49;7.60;;;1.20;;
1404;SDS011;697;51.114;6.542;2023-05-16T11:07:17;4.13;;;1.33;;
1404;SDS011;697;51.114;6.542;2023-05-16T11:09:52;5.40;;;2.27;;
1404;SDS011;697;51.114;6.542;2023-05-16T11:12:34;2.00;;;1.10;;
1404;SDS011;697;51.114;6.542;2023-05-16T11:15:22;4.33;;;1.80;;
1404;SDS011;697;51.114;6.542;2023-05-16T11:17:55;5.17;;;1.47;;
1404;SDS011;697;51.114;6.542;2023-05-16T11:20:30;4.83;;;1.70;;
1404;SDS011;697;51.114;6.542;2023-05-16T11:25:44;4.90;;;1.40;;
1404;SDS011;697;51.114;6.542;2023-05-16T11:28:13;4.50;;;1.63;;
1404;SDS011;697;51.114;6.542;2023-05-16T11:30:41;2.93;;;1.80;;
1404;SDS011;697;51.114;6.542;2023-05-16T11:33:11;3.73;;;1.53;;
1404;SDS011;697;51.114;6.542;2023-05-16T11:35:38;7.53;;;1.73;;
1404;SDS011;697;51.114;6.542;2023-05-16T11:38:04;4.47;;;1.30;;
1404;SDS011;697;51.114;6.542;2023-05-16T11:40:32;5.50;;;1.50;;
1404;SDS011;697;51.114;6.542;2023-05-16T11:42:59;4.43;;;1.40;;
1404;SDS011;697;51.114;6.542;2023-05-16T11:45:27;3.23;;;1.30;;
1404;SDS011;697;51.114;6.542;2023-05-16T11:48:00;5.50;;;1.40;;
1404;SDS011;697;51.114;6.542;2023-05-16T11:50:29;2.40;;;1.07;;
1404;SDS011;697;51.114;6.542;2023-05-16T11:52:56;8.93;;;1.33;;
1404;SDS011;697;51.114;6.542;2023-05-16T11:55:23;3.87;;;1.30;;
1404;SDS011;697;51.114;6.542;2023-05-16T11:57:52;3.77;;;1.30;;
1404;SDS011;697;51.114;6.542;2023-05-16T12:00:19;4.70;;;1.27;;
1404;SDS011;697;51.114;6.542;2023-05-16T12:02:48;3.43;;;1.63;;
1404;SDS011;697;51.114;6.542;2023-05-16T12:05:15;5.83;;;0.93;;
1404;SDS011;697;51.114;6.542;2023-05-16T12:07:46;2.80;;;1.17;;
1404;SDS011;697;51.114;6.542;2023-05-16T12:10:13;3.87;;;1.17;;
1404;SDS011;697;51.114;6.542;2023-05-16T12:12:41;4.60;;;1.10;;
1404;SDS011;697;51.114;6.542;2023-05-16T12:15:10;3.63;;;1.20;;
1404;SDS011;697;51.114;6.542;2023-05-16T12:17:38;3.73;;;1.13;;
1404;SDS011;697;51.114;6.542;2023-05-16T12:20:07;2.03;;;1.20;;
1404;SDS011;697;51.114;6.542;2023-05-16T12:22:37;1.87;;;1.00;;
1404;SDS011;697;51.114;6.542;2023-05-16T12:25:21;2.47;;;1.20;;
1404;SDS011;697;51.114;6.542;2023-05-16T12:27:52;3.73;;;1.40;;
1404;SDS011;697;51.114;6.542;2023-05-16T12:30:20;3.53;;;1.00;;
1404;SDS011;697;51.114;6.542;2023-05-16T12:32:51;3.07;;;0.97;;
1404;SDS011;697;51.114;6.542;2023-05-16T12:35:20;3.80;;;1.43;;
1404;SDS011;697;51.114;6.542;2023-05-16T12:37:47;2.43;;;1.20;;
1404;SDS011;697;51.114;6.542;2023-05-16T12:40:15;3.87;;;1.40;;
1404;SDS011;697;51.114;6.542;2023-05-16T12:42:43;3.33;;;1.20;;
1404;SDS011;697;51.114;6.542;2023-05-16T12:45:13;5.10;;;1.13;;
1404;SDS011;697;51.114;6.542;2023-05-16T12:47:41;6.20;;;1.30;;
1404;SDS011;697;51.114;6.542;2023-05-16T12:50:08;2.43;;;1.20;;
1404;SDS011;697;51.114;6.542;2023-05-16T12:52:44;1.60;;;0.80;;
1404;SDS011;697;51.114;6.542;2023-05-16T12:55:13;2.93;;;0.93;;
1404;SDS011;697;51.114;6.542;2023-05-16T12:57:40;2.53;;;1.00;;
1404;SDS011;697;51.114;6.542;2023-05-16T13:00:10;2.67;;;0.93;;
1404;SDS011;697;51.114;6.542;2023-05-16T13:02:37;2.67;;;1.40;;
1404;SDS011;697;51.114;6.542;2023-05-16T13:05:04;2.53;;;1.30;;
1404;SDS011;697;51.114;6.542;2023-05-16T13:07:32;2.30;;;0.70;;
1404;SDS011;697;51.114;6.542;2023-05-16T13:09:59;3.60;;;1.20;;
1404;SDS011;697;51.114;6.542;2023-05-16T13:12:26;4.30;;;0.87;;
1404;SDS011;697;51.114;6.542;2023-05-16T13:14:52;3.60;;;0.90;;
1404;SDS011;697;51.114;6.542;2023-05-16T13:17:20;2.27;;;1.10;;
1404;SDS011;697;51.114;6.542;2023-05-16T13:19:48;2.38;;;1.10;;
1404;SDS011;697;51.114;6.542;2023-05-16T13:22:15;2.33;;;1.13;;
1404;SDS011;697;51.114;6.542;2023-05-16T13:24:42;5.93;;;1.30;;
1404;SDS011;697;51.114;6.542;2023-05-16T13:27:08;3.30;;;1.20;;
1404;SDS011;697;51.114;6.542;2023-05-16T13:29:35;2.45;;;0.95;;
1404;SDS011;697;51.114;6.542;2023-05-16T13:32:02;3.33;;;1.10;;
1404;SDS011;697;51.114;6.542;2023-05-16T13:34:31;3.35;;;1.10;;
1404;SDS011;697;51.114;6.542;2023-05-16T13:36:57;3.78;;;1.00;;
1404;SDS011;697;51.114;6.542;2023-05-16T13:39:24;2.45;;;1.00;;
1404;SDS011;697;51.114;6.542;2023-05-16T13:41:51;2.95;;;1.20;;
1404;SDS011;697;51.114;6.542;2023-05-16T13:44:18;3.80;;;1.20;;
1404;SDS011;697;51.114;6.542;2023-05-16T13:46:46;2.30;;;1.10;;
1404;SDS011;697;51.114;6.542;2023-05-16T13:49:13;2.88;;;1.60;;
1404;SDS011;697;51.114;6.542;2023-05-16T13:51:41;3.08;;;1.10;;
1404;SDS011;697;51.114;6.542;2023-05-16T13:54:08;3.10;;;1.03;;
1404;SDS011;697;51.114;6.542;2023-05-16T13:56:35;5.20;;;1.50;;
1404;SDS011;697;51.114;6.542;2023-05-16T13:59:01;3.03;;;1.43;;
1404;SDS011;697;51.114;6.542;2023-05-16T14:01:28;4.93;;;1.57;;
1404;SDS011;697;51.114;6.542;2023-05-16T14:03:55;2.20;;;0.93;;
1404;SDS011;697;51.114;6.542;2023-05-16T14:06:22;2.90;;;1.30;;
1404;SDS011;697;51.114;6.542;2023-05-16T14:08:50;2.20;;;1.40;;
1404;SDS011;697;51.114;6.542;2023-05-16T14:11:17;3.40;;;1.37;;
1404;SDS011;697;51.114;6.542;2023-05-16T14:13:50;2.67;;;1.00;;
1404;SDS011;697;51.114;6.542;2023-05-16T14:16:16;2.10;;;1.07;;
1404;SDS011;697;51.114;6.542;2023-05-16T14:18:43;2.40;;;1.10;;
1404;SDS011;697;51.114;6.542;2023-05-16T14:21:10;3.37;;;1.20;;
1404;SDS011;697;51.114;6.542;2023-05-16T14:23:37;2.20;;;1.00;;
1404;SDS011;697;51.114;6.542;2023-05-16T14:26:06;4.57;;;1.33;;
1404;SDS011;697;51.114;6.542;2023-05-16T14:28:32;2.63;;;0.90;;
1404;SDS011;697;51.114;6.542;2023-05-16T14:30:59;6.80;;;1.50;;
1404;SDS011;697;51.114;6.542;2023-05-16T14:33:26;2.20;;;1.10;;
1404;SDS011;697;51.114;6.542;2023-05-16T14:35:53;3.30;;;0.90;;
1404;SDS011;697;51.114;6.542;2023-05-16T14:38:20;4.70;;;1.27;;
1404;SDS011;697;51.114;6.542;2023-05-16T14:40:47;3.40;;;1.10;;
1404;SDS011;697;51.114;6.542;2023-05-16T14:43:15;3.33;;;1.43;;
1404;SDS011;697;51.114;6.542;2023-05-16T14:45:41;4.50;;;1.37;;
1404;SDS011;697;51.114;6.542;2023-05-16T14:48:08;4.70;;;1.60;;
1404;SDS011;697;51.114;6.542;2023-05-16T14:50:35;3.33;;;1.30;;
1404;SDS011;697;51.114;6.542;2023-05-16T14:53:01;6.40;;;1.40;;
1404;SDS011;697;51.114;6.542;2023-05-16T14:55:28;4.20;;;1.33;;
1404;SDS011;697;51.114;6.542;2023-05-16T14:57:55;5.57;;;1.40;;
1404;SDS011;697;51.114;6.542;2023-05-16T15:00:23;2.90;;;1.20;;
1404;SDS011;697;51.114;6.542;2023-05-16T15:02:50;3.23;;;1.70;;
1404;SDS011;697;51.114;6.542;2023-05-16T15:05:19;2.60;;;1.13;;
1404;SDS011;697;51.114;6.542;2023-05-16T15:07:46;2.97;;;1.60;;
1404;SDS011;697;51.114;6.542;2023-05-16T15:10:13;2.87;;;1.30;;
1404;SDS011;697;51.114;6.542;2023-05-16T15:12:40;5.90;;;1.50;;
1404;SDS011;697;51.114;6.542;2023-05-16T15:15:07;9.03;;;1.53;;
1404;SDS011;697;51.114;6.542;2023-05-16T15:17:37;3.17;;;1.53;;
1404;SDS011;697;51.114;6.542;2023-05-16T15:20:05;3.93;;;1.50;;
1404;SDS011;697;51.114;6.542;2023-05-16T15:22:33;2.60;;;1.37;;
1404;SDS011;697;51.114;6.542;2023-05-16T15:25:00;2.30;;;1.30;;
1404;SDS011;697;51.114;6.542;2023-05-16T15:27:29;2.80;;;1.33;;
1404;SDS011;697;51.114;6.542;2023-05-16T15:29:56;2.60;;;1.30;;
1404;SDS011;697;51.114;6.542;2023-05-16T15:32:23;3.10;;;1.67;;
1404;SDS011;697;51.114;6.542;2023-05-16T15:34:51;4.50;;;1.60;;